createdAt,value
2019-05-11T00:00:55.796Z,781.81
2019-05-11T00:01:55.779Z,781.81
2019-05-11T00:02:55.820Z,781.78
2019-05-11T00:03:55.762Z,781.76
2019-05-11T00:04:55.752Z,781.80
2019-05-11T00:05:55.741Z,781.79
2019-05-11T00:06:55.737Z,781.76
2019-05-11T00:07:55.768Z,781.68
2019-05-11T00:08:55.707Z,781.66
2019-05-11T00:09:58.445Z,781.63
2019-05-11T00:10:55.696Z,781.62
2019-05-11T00:11:55.692Z,781.58
2019-05-11T00:12:55.697Z,781.59
2019-05-11T00:13:55.664Z,781.61
2019-05-11T00:14:55.638Z,781.60
2019-05-11T00:15:55.642Z,781.57
2019-05-11T00:16:55.621Z,781.56
2019-05-11T00:17:55.642Z,781.57
2019-05-11T00:18:55.599Z,781.58
2019-05-11T00:19:55.589Z,781.55
2019-05-11T00:20:55.590Z,781.58
2019-05-11T00:21:55.570Z,781.59
2019-05-11T00:22:55.581Z,781.58
2019-05-11T00:23:55.543Z,781.66
2019-05-11T00:24:55.546Z,781.68
2019-05-11T00:25:55.530Z,781.75
2019-05-11T00:26:55.524Z,781.77
2019-05-11T00:27:55.546Z,781.78
2019-05-11T00:28:55.503Z,781.78
2019-05-11T00:29:55.489Z,781.77
2019-05-11T00:30:55.515Z,781.77
2019-05-11T00:31:55.464Z,781.79
2019-05-11T00:32:55.470Z,781.81
2019-05-11T00:33:55.454Z,781.84
2019-05-11T00:34:55.435Z,781.87
2019-05-11T00:35:55.421Z,781.83
2019-05-11T00:36:55.409Z,781.83
2019-05-11T00:37:55.404Z,781.83
2019-05-11T00:38:55.443Z,781.81
2019-05-11T00:39:55.377Z,781.78
2019-05-11T00:40:55.384Z,781.78
2019-05-11T00:41:55.355Z,781.74
2019-05-11T00:42:55.356Z,781.76
2019-05-11T00:43:55.362Z,781.75
2019-05-11T00:44:55.318Z,781.73
2019-05-11T00:45:55.304Z,781.68
2019-05-11T00:46:55.300Z,781.66
2019-05-11T00:47:55.288Z,781.64
2019-05-11T00:48:55.310Z,781.64
2019-05-11T00:49:55.269Z,781.59
2019-05-11T00:50:55.263Z,781.59
2019-05-11T00:51:55.321Z,781.60
2019-05-11T00:52:55.230Z,781.60
2019-05-11T00:53:55.239Z,781.58
2019-05-11T00:54:55.209Z,781.58
2019-05-11T00:55:55.211Z,781.54
2019-05-11T00:56:55.184Z,781.51
2019-05-11T00:57:55.182Z,781.49
2019-05-11T00:58:55.205Z,781.50
2019-05-11T00:59:55.155Z,781.50
2019-05-11T01:00:55.153Z,781.52
2019-05-11T01:01:55.145Z,781.57
2019-05-11T01:04:04.319Z,781.70
2019-05-11T01:05:05.323Z,781.59
2019-05-11T01:06:05.306Z,781.58
2019-05-11T01:07:05.273Z,781.56
2019-05-11T01:08:05.265Z,781.54
2019-05-11T01:09:05.269Z,781.53
2019-05-11T01:10:05.240Z,781.51
2019-05-11T01:11:05.240Z,781.50
2019-05-11T01:12:05.220Z,781.48
2019-05-11T01:13:05.224Z,781.47
2019-05-11T01:14:05.235Z,781.45
2019-05-11T01:15:05.197Z,781.48
2019-05-11T01:16:05.182Z,781.43
2019-05-11T01:17:05.168Z,781.43
2019-05-11T01:18:05.162Z,781.41
2019-05-11T01:19:05.163Z,781.43
2019-05-11T01:20:05.135Z,781.40
2019-05-11T01:21:05.124Z,781.39
2019-05-11T01:22:05.124Z,781.39
2019-05-11T01:23:05.104Z,781.39
2019-05-11T01:24:05.105Z,781.39
2019-05-11T01:25:05.074Z,781.36
2019-05-11T01:26:05.063Z,781.33
2019-05-11T01:27:05.058Z,781.30
2019-05-11T01:28:05.050Z,781.25
2019-05-11T01:29:05.056Z,781.24
2019-05-11T01:30:05.047Z,781.23
2019-05-11T01:31:05.010Z,781.24
2019-05-11T01:32:05.014Z,781.24
2019-05-11T01:33:05.046Z,781.26
2019-05-11T01:34:05.002Z,781.29
2019-05-11T01:35:04.971Z,781.27
2019-05-11T01:36:04.971Z,781.27
2019-05-11T01:37:04.946Z,781.21
2019-05-11T01:38:04.937Z,781.21
2019-05-11T01:39:04.948Z,781.22
2019-05-11T01:40:04.931Z,781.19
2019-05-11T01:41:04.936Z,781.21
2019-05-11T01:42:05.583Z,781.18
2019-05-11T01:43:05.561Z,781.17
2019-05-11T01:44:04.888Z,781.12
2019-05-11T01:45:05.095Z,781.15
2019-05-11T01:46:04.874Z,781.12
2019-05-11T01:47:04.868Z,781.11
2019-05-11T01:48:05.571Z,781.06
2019-05-11T01:49:05.565Z,781.06
2019-05-11T01:50:05.083Z,781.02
2019-05-11T01:51:04.873Z,781.08
2019-05-11T01:52:04.873Z,781.07
2019-05-11T01:53:04.958Z,781.07
2019-05-11T01:54:04.861Z,781.10
2019-05-11T01:55:04.836Z,781.12
2019-05-11T01:56:04.750Z,781.10
2019-05-11T01:57:04.727Z,781.11
2019-05-11T01:58:04.715Z,781.12
2019-05-11T01:59:04.716Z,781.11
2019-05-11T02:00:04.732Z,781.10
2019-05-11T02:01:04.693Z,781.11
2019-05-11T02:02:04.674Z,781.12
2019-05-11T02:03:04.662Z,781.12
2019-05-11T02:04:04.659Z,781.10
2019-05-11T02:05:04.674Z,781.10
2019-05-11T02:06:04.624Z,781.07
2019-05-11T02:07:04.614Z,781.06
2019-05-11T02:08:04.613Z,781.09
2019-05-11T02:09:04.599Z,781.08
2019-05-11T02:10:04.608Z,781.11
2019-05-11T02:11:15.374Z,781.12
2019-05-11T02:12:04.572Z,781.12
2019-05-11T02:13:04.560Z,781.15
2019-05-11T02:14:04.548Z,781.12
2019-05-11T02:15:04.553Z,781.13
2019-05-11T02:16:04.512Z,781.12
2019-05-11T02:17:04.512Z,781.15
2019-05-11T02:18:04.509Z,781.14
2019-05-11T02:19:04.484Z,781.18
2019-05-11T02:20:04.493Z,781.21
2019-05-11T02:21:04.477Z,781.25
2019-05-11T02:22:04.448Z,781.28
2019-05-11T02:23:04.447Z,781.30
2019-05-11T02:24:04.427Z,781.29
2019-05-11T02:25:04.457Z,781.29
2019-05-11T02:26:04.427Z,781.26
2019-05-11T02:27:04.406Z,781.21
2019-05-11T02:28:04.392Z,781.19
2019-05-11T02:29:04.377Z,781.16
2019-05-11T02:30:04.635Z,781.11
2019-05-11T02:31:04.363Z,781.07
2019-05-11T02:32:04.348Z,781.03
2019-05-11T02:33:04.337Z,780.96
2019-05-11T02:34:04.320Z,780.96
2019-05-11T02:35:04.327Z,780.92
2019-05-11T02:36:04.294Z,780.90
2019-05-11T02:37:04.304Z,780.82
2019-05-11T02:38:04.282Z,780.79
2019-05-11T02:39:04.278Z,780.79
2019-05-11T02:40:04.279Z,780.77
2019-05-11T02:41:04.252Z,780.74
2019-05-11T02:42:04.243Z,780.71
2019-05-11T02:43:04.220Z,780.72
2019-05-11T02:44:04.213Z,780.68
2019-05-11T02:45:04.206Z,780.72
2019-05-11T02:46:04.213Z,780.71
2019-05-11T02:47:04.171Z,780.75
2019-05-11T02:48:04.167Z,780.79
2019-05-11T02:49:04.158Z,780.80
2019-05-11T02:50:04.173Z,780.83
2019-05-11T02:51:04.146Z,780.82
2019-05-11T02:52:04.124Z,780.81
2019-05-11T02:53:04.122Z,780.83
2019-05-11T02:54:04.133Z,780.83
2019-05-11T02:55:04.094Z,780.83
2019-05-11T02:56:04.108Z,780.81
2019-05-11T02:57:04.066Z,780.81
2019-05-11T02:58:04.060Z,780.84
2019-05-11T02:59:04.043Z,780.79
2019-05-11T03:00:04.039Z,780.77
2019-05-11T03:01:04.039Z,780.75
2019-05-11T03:02:04.013Z,780.75
2019-05-11T03:03:04.021Z,780.76
2019-05-11T03:05:13.174Z,780.92
2019-05-11T03:06:14.176Z,780.77
2019-05-11T03:07:14.160Z,780.72
2019-05-11T03:08:14.137Z,780.75
2019-05-11T03:09:14.124Z,780.72
2019-05-11T03:10:14.112Z,780.72
2019-05-11T03:11:14.125Z,780.70
2019-05-11T03:12:14.107Z,780.70
2019-05-11T03:13:14.091Z,780.69
2019-05-11T03:14:14.079Z,780.67
2019-05-11T03:15:14.096Z,780.71
2019-05-11T03:16:14.064Z,780.67
2019-05-11T03:17:14.054Z,780.68
2019-05-11T03:18:14.042Z,780.69
2019-05-11T03:19:14.023Z,780.69
2019-05-11T03:20:14.007Z,780.67
2019-05-11T03:21:14.018Z,780.65
2019-05-11T03:22:14.081Z,780.66
2019-05-11T03:23:13.983Z,780.67
2019-05-11T03:24:13.967Z,780.63
2019-05-11T03:25:13.961Z,780.56
2019-05-11T03:26:13.966Z,780.55
2019-05-11T03:27:13.947Z,780.54
2019-05-11T03:28:13.944Z,780.49
2019-05-11T03:29:13.920Z,780.44
2019-05-11T03:30:13.909Z,780.42
2019-05-11T03:31:13.905Z,780.40
2019-05-11T03:32:13.884Z,780.38
2019-05-11T03:33:13.889Z,780.37
2019-05-11T03:34:13.859Z,780.43
2019-05-11T03:35:13.867Z,780.51
2019-05-11T03:36:13.858Z,780.55
2019-05-11T03:37:13.818Z,780.65
2019-05-11T03:38:13.828Z,780.65
2019-05-11T03:39:13.802Z,780.68
2019-05-11T03:40:13.791Z,780.66
2019-05-11T03:41:13.801Z,780.70
2019-05-11T03:42:15.335Z,780.71
2019-05-11T03:43:13.779Z,780.74
2019-05-11T03:44:13.825Z,780.78
2019-05-11T03:45:13.743Z,780.79
2019-05-11T03:46:13.743Z,780.82
2019-05-11T03:47:13.716Z,780.82
2019-05-11T03:48:13.707Z,780.84
2019-05-11T03:49:13.695Z,780.82
2019-05-11T03:50:13.667Z,780.85
2019-05-11T03:51:13.698Z,780.81
2019-05-11T03:52:13.661Z,780.80
2019-05-11T03:53:13.648Z,780.82
2019-05-11T03:54:13.640Z,780.88
2019-05-11T03:55:13.645Z,780.79
2019-05-11T03:56:13.625Z,780.91
2019-05-11T03:57:13.619Z,780.89
2019-05-11T03:58:13.608Z,780.86
2019-05-11T03:59:13.583Z,780.88
2019-05-11T04:00:13.582Z,780.91
2019-05-11T04:01:13.562Z,780.91
2019-05-11T04:02:13.688Z,780.91
2019-05-11T04:03:13.548Z,780.95
2019-05-11T04:04:16.442Z,780.99
2019-05-11T04:05:13.526Z,780.99
2019-05-11T04:06:13.505Z,780.99
2019-05-11T04:07:13.510Z,780.97
2019-05-11T04:08:13.486Z,780.99
2019-05-11T04:09:13.476Z,780.98
2019-05-11T04:10:13.489Z,780.99
2019-05-11T04:11:13.448Z,780.97
2019-05-11T04:12:32.965Z,781.00
2019-05-11T04:13:13.427Z,781.02
2019-05-11T04:14:13.420Z,781.02
2019-05-11T04:15:13.397Z,781.00
2019-05-11T04:16:13.393Z,781.02
2019-05-11T04:17:13.396Z,780.97
2019-05-11T04:18:13.374Z,780.98
2019-05-11T04:19:13.353Z,780.97
2019-05-11T04:20:13.348Z,780.98
2019-05-11T04:21:13.346Z,780.97
2019-05-11T04:22:13.339Z,780.95
2019-05-11T04:23:13.306Z,780.96
2019-05-11T04:24:13.308Z,780.97
2019-05-11T04:25:13.291Z,780.97
2019-05-11T04:26:13.281Z,780.95
2019-05-11T04:27:13.285Z,780.92
2019-05-11T04:28:13.268Z,780.95
2019-05-11T04:29:13.254Z,780.97
2019-05-11T04:30:13.238Z,780.95
2019-05-11T04:31:13.230Z,780.92
2019-05-11T04:32:13.235Z,780.95
2019-05-11T04:33:13.203Z,780.94
2019-05-11T04:34:13.195Z,780.91
2019-05-11T04:35:13.188Z,780.98
2019-05-11T04:36:13.183Z,780.95
2019-05-11T04:37:13.188Z,780.94
2019-05-11T04:38:13.141Z,780.89
2019-05-11T04:39:13.136Z,780.87
2019-05-11T04:40:13.144Z,780.87
2019-05-11T04:41:13.119Z,780.85
2019-05-11T04:42:13.124Z,780.82
2019-05-11T04:43:13.137Z,780.81
2019-05-11T04:44:13.109Z,780.86
2019-05-11T04:45:13.070Z,780.80
2019-05-11T04:46:13.051Z,780.78
2019-05-11T04:47:13.073Z,780.78
2019-05-11T04:48:13.033Z,780.74
2019-05-11T04:49:13.027Z,780.70
2019-05-11T04:50:13.012Z,780.74
2019-05-11T04:51:13.013Z,780.74
2019-05-11T04:52:13.019Z,780.70
2019-05-11T04:53:12.979Z,780.72
2019-05-11T04:54:12.991Z,780.71
2019-05-11T04:55:12.957Z,780.70
2019-05-11T04:56:12.960Z,780.68
2019-05-11T04:57:12.990Z,780.64
2019-05-11T04:58:12.953Z,780.63
2019-05-11T04:59:12.909Z,780.61
2019-05-11T05:00:12.895Z,780.62
2019-05-11T05:01:12.900Z,780.58
2019-05-11T05:02:12.888Z,780.53
2019-05-11T05:03:12.891Z,780.56
2019-05-11T05:04:14.437Z,780.58
2019-05-11T05:06:24.345Z,780.65
2019-05-11T05:07:23.057Z,780.49
2019-05-11T05:08:26.512Z,780.52
2019-05-11T05:09:23.030Z,780.54
2019-05-11T05:10:22.999Z,780.50
2019-05-11T05:11:22.981Z,780.43
2019-05-11T05:12:22.979Z,780.37
2019-05-11T05:13:28.646Z,780.38
2019-05-11T05:14:22.969Z,780.39
2019-05-11T05:15:22.939Z,780.36
2019-05-11T05:16:22.941Z,780.28
2019-05-11T05:17:22.923Z,780.29
2019-05-11T05:18:22.926Z,780.34
2019-05-11T05:19:22.906Z,780.31
2019-05-11T05:20:22.899Z,780.22
2019-05-11T05:21:22.884Z,780.19
2019-05-11T05:22:22.879Z,780.14
2019-05-11T05:23:22.884Z,780.09
2019-05-11T05:24:22.850Z,780.14
2019-05-11T05:25:22.852Z,780.14
2019-05-11T05:26:22.833Z,780.09
2019-05-11T05:27:22.807Z,780.01
2019-05-11T05:28:22.833Z,780.02
2019-05-11T05:29:22.800Z,780.14
2019-05-11T05:30:22.776Z,780.07
2019-05-11T05:31:22.770Z,780.08
2019-05-11T05:32:22.756Z,780.05
2019-05-11T05:33:22.843Z,779.99
2019-05-11T05:34:22.730Z,779.92
2019-05-11T05:35:22.769Z,779.89
2019-05-11T05:36:22.712Z,779.93
2019-05-11T05:37:22.695Z,779.98
2019-05-11T05:38:22.702Z,779.96
2019-05-11T05:39:22.673Z,779.84
2019-05-11T05:40:22.672Z,779.83
2019-05-11T05:41:23.283Z,779.83
2019-05-11T05:42:22.649Z,779.82
2019-05-11T05:43:27.446Z,779.88
2019-05-11T05:44:22.622Z,779.83
2019-05-11T05:45:22.611Z,779.91
2019-05-11T05:46:22.606Z,779.97
2019-05-11T05:47:22.605Z,780.02
2019-05-11T05:48:22.597Z,780.07
2019-05-11T05:49:22.572Z,780.20
2019-05-11T05:50:22.557Z,780.21
2019-05-11T05:51:22.534Z,780.16
2019-05-11T05:52:22.536Z,780.13
2019-05-11T05:53:22.544Z,780.13
2019-05-11T05:54:22.510Z,780.09
2019-05-11T05:55:22.508Z,780.16
2019-05-11T05:56:22.483Z,780.18
2019-05-11T05:57:22.484Z,780.21
2019-05-11T05:58:22.511Z,780.14
2019-05-11T05:59:22.461Z,779.97
2019-05-11T06:00:22.460Z,779.96
2019-05-11T06:01:22.439Z,780.09
2019-05-11T06:02:22.437Z,780.07
2019-05-11T06:03:22.424Z,779.95
2019-05-11T06:04:22.400Z,780.14
2019-05-11T06:05:22.380Z,780.11
2019-05-11T06:06:22.383Z,780.00
2019-05-11T06:07:22.368Z,780.02
2019-05-11T06:08:22.377Z,780.08
2019-05-11T06:09:22.339Z,780.04
2019-05-11T06:10:22.331Z,779.96
2019-05-11T06:11:22.311Z,780.02
2019-05-11T06:12:22.323Z,780.10
2019-05-11T06:13:22.340Z,780.14
2019-05-11T06:14:22.288Z,780.15
2019-05-11T06:15:22.280Z,780.18
2019-05-11T06:16:22.258Z,780.15
2019-05-11T06:17:22.263Z,780.16
2019-05-11T06:18:22.270Z,780.11
2019-05-11T06:19:22.256Z,780.23
2019-05-11T06:20:22.225Z,780.20
2019-05-11T06:21:22.214Z,780.20
2019-05-11T06:22:22.221Z,780.13
2019-05-11T06:23:22.224Z,780.23
2019-05-11T06:24:22.166Z,780.15
2019-05-11T06:25:22.179Z,780.12
2019-05-11T06:26:22.156Z,780.11
2019-05-11T06:27:22.138Z,780.11
2019-05-11T06:28:22.145Z,780.04
2019-05-11T06:29:22.218Z,779.92
2019-05-11T06:30:22.118Z,780.03
2019-05-11T06:31:22.102Z,780.08
2019-05-11T06:32:22.090Z,780.11
2019-05-11T06:33:22.078Z,780.03
2019-05-11T06:34:22.084Z,779.96
2019-05-11T06:35:22.732Z,779.92
2019-05-11T06:36:22.043Z,779.93
2019-05-11T06:37:22.027Z,779.82
2019-05-11T06:38:22.030Z,779.75
2019-05-11T06:39:22.019Z,779.73
2019-05-11T06:40:21.998Z,779.72
2019-05-11T06:41:21.996Z,779.72
2019-05-11T06:42:21.974Z,779.70
2019-05-11T06:43:21.965Z,779.60
2019-05-11T06:44:21.968Z,779.54
2019-05-11T06:45:21.941Z,779.49
2019-05-11T06:46:21.944Z,779.44
2019-05-11T06:47:21.927Z,779.41
2019-05-11T06:48:21.904Z,779.43
2019-05-11T06:49:21.917Z,779.44
2019-05-11T06:50:21.889Z,779.34
2019-05-11T06:51:21.868Z,779.31
2019-05-11T06:52:21.878Z,779.26
2019-05-11T06:53:21.859Z,779.06
2019-05-11T06:54:21.860Z,779.02
2019-05-11T06:55:21.832Z,779.20
2019-05-11T06:56:21.843Z,779.20
2019-05-11T06:57:21.819Z,779.33
2019-05-11T06:58:21.800Z,779.56
2019-05-11T06:59:21.806Z,779.53
2019-05-11T07:00:21.782Z,779.49
2019-05-11T07:01:21.765Z,779.45
2019-05-11T07:02:21.758Z,779.38
2019-05-11T07:03:21.743Z,779.33
2019-05-11T07:04:21.747Z,779.34
2019-05-11T07:05:21.724Z,779.30
2019-05-11T07:07:46.088Z,779.59
2019-05-11T07:08:31.881Z,779.34
2019-05-11T07:09:31.904Z,779.35
2019-05-11T07:10:31.863Z,779.33
2019-05-11T07:11:31.851Z,779.28
2019-05-11T07:12:31.833Z,779.24
2019-05-11T07:13:31.839Z,779.31
2019-05-11T07:14:31.841Z,779.28
2019-05-11T07:15:31.815Z,779.15
2019-05-11T07:16:31.793Z,779.25
2019-05-11T07:17:31.782Z,779.27
2019-05-11T07:18:31.780Z,779.35
2019-05-11T07:19:31.790Z,779.28
2019-05-11T07:20:31.758Z,779.25
2019-05-11T07:21:31.737Z,779.27
2019-05-11T07:22:31.721Z,779.15
2019-05-11T07:23:31.718Z,779.01
2019-05-11T07:24:31.732Z,778.94
2019-05-11T07:25:31.708Z,778.91
2019-05-11T07:26:31.686Z,779.16
2019-05-11T07:27:31.686Z,779.09
2019-05-11T07:28:31.681Z,779.10
2019-05-11T07:29:31.673Z,779.00
2019-05-11T07:30:31.642Z,778.92
2019-05-11T07:31:31.631Z,778.84
2019-05-11T07:32:31.632Z,778.88
2019-05-11T07:33:31.618Z,778.78
2019-05-11T07:34:31.627Z,778.64
2019-05-11T07:35:31.596Z,778.51
2019-05-11T07:36:31.575Z,778.37
2019-05-11T07:37:31.564Z,778.64
2019-05-11T07:38:31.550Z,778.59
2019-05-11T07:39:31.553Z,778.55
2019-05-11T07:40:31.573Z,778.50
2019-05-11T07:41:31.539Z,778.54
2019-05-11T07:42:31.545Z,778.57
2019-05-11T07:43:31.570Z,778.51
2019-05-11T07:44:38.389Z,778.49
2019-05-11T07:45:31.484Z,778.38
2019-05-11T07:46:31.469Z,778.30
2019-05-11T07:47:31.476Z,778.22
2019-05-11T07:48:31.451Z,778.17
2019-05-11T07:49:31.431Z,778.13
2019-05-11T07:50:31.430Z,778.09
2019-05-11T07:51:31.415Z,777.96
2019-05-11T07:52:31.403Z,777.86
2019-05-11T07:53:31.383Z,777.83
2019-05-11T07:54:31.372Z,778.03
2019-05-11T07:55:31.386Z,778.19
2019-05-11T07:56:31.359Z,778.15
2019-05-11T07:57:31.353Z,778.11
2019-05-11T07:58:31.337Z,778.05
2019-05-11T07:59:31.313Z,778.15
2019-05-11T08:00:31.328Z,777.98
2019-05-11T08:01:31.299Z,777.77
2019-05-11T08:02:32.383Z,777.73
2019-05-11T08:03:31.272Z,777.74
2019-05-11T08:04:31.263Z,777.80
2019-05-11T08:05:31.265Z,777.74
2019-05-11T08:06:31.233Z,777.84
2019-05-11T08:07:31.241Z,777.88
2019-05-11T08:08:31.225Z,778.14
2019-05-11T08:09:31.199Z,778.14
2019-05-11T08:10:31.212Z,777.94
2019-05-11T08:11:31.614Z,777.98
2019-05-11T08:12:31.174Z,777.98
2019-05-11T08:13:31.172Z,777.88
2019-05-11T08:14:31.164Z,778.02
2019-05-11T08:15:31.158Z,778.08
2019-05-11T08:16:31.154Z,778.02
2019-05-11T08:17:31.114Z,777.93
2019-05-11T08:18:31.108Z,777.93
2019-05-11T08:19:31.096Z,778.00
2019-05-11T08:20:31.105Z,777.96
2019-05-11T08:21:31.072Z,777.93
2019-05-11T08:22:31.066Z,777.74
2019-05-11T08:23:31.050Z,777.71
2019-05-11T08:24:31.034Z,777.66
2019-05-11T08:25:31.048Z,777.38
2019-05-11T08:26:31.022Z,777.33
2019-05-11T08:27:30.998Z,777.45
2019-05-11T08:28:30.995Z,777.54
2019-05-11T08:29:30.980Z,777.65
2019-05-11T08:30:30.992Z,777.51
2019-05-11T08:31:30.983Z,777.52
2019-05-11T08:32:30.949Z,777.37
2019-05-11T08:33:30.938Z,777.47
2019-05-11T08:34:30.932Z,777.68
2019-05-11T08:35:31.397Z,777.63
2019-05-11T08:36:30.931Z,777.65
2019-05-11T08:37:30.887Z,777.45
2019-05-11T08:38:30.887Z,777.39
2019-05-11T08:39:30.864Z,777.20
2019-05-11T08:40:30.851Z,777.04
2019-05-11T08:41:30.855Z,777.05
2019-05-11T08:42:30.836Z,777.08
2019-05-11T08:43:30.822Z,777.51
2019-05-11T08:44:30.818Z,777.81
2019-05-11T08:45:30.810Z,777.75
2019-05-11T08:46:30.816Z,777.65
2019-05-11T08:47:30.775Z,777.52
2019-05-11T08:48:30.763Z,777.64
2019-05-11T08:49:30.760Z,777.70
2019-05-11T08:50:30.752Z,777.93
2019-05-11T08:51:30.748Z,777.99
2019-05-11T08:52:30.716Z,777.79
2019-05-11T08:53:30.710Z,777.66
2019-05-11T08:54:30.699Z,777.46
2019-05-11T08:55:30.707Z,777.67
2019-05-11T08:56:30.709Z,777.57
2019-05-11T08:57:31.662Z,777.60
2019-05-11T08:58:30.667Z,777.66
2019-05-11T08:59:30.655Z,777.55
2019-05-11T09:00:30.636Z,777.48
2019-05-11T09:01:31.294Z,777.32
2019-05-11T09:02:30.633Z,777.40
2019-05-11T09:03:30.599Z,777.51
2019-05-11T09:04:30.600Z,777.63
2019-05-11T09:05:30.571Z,777.58
2019-05-11T09:06:30.588Z,777.57
2019-05-11T09:08:39.762Z,778.03
2019-05-11T09:09:40.735Z,778.04
2019-05-11T09:10:40.726Z,778.04
2019-05-11T09:11:40.724Z,778.11
2019-05-11T09:12:40.704Z,778.17
2019-05-11T09:13:40.694Z,778.07
2019-05-11T09:14:40.680Z,778.01
2019-05-11T09:15:40.962Z,778.13
2019-05-11T09:16:40.664Z,778.15
2019-05-11T09:17:40.659Z,778.10
2019-05-11T09:18:40.633Z,777.98
2019-05-11T09:19:40.625Z,777.93
2019-05-11T09:20:40.612Z,778.06
2019-05-11T09:21:40.597Z,777.95
2019-05-11T09:22:40.599Z,777.95
2019-05-11T09:23:40.946Z,777.86
2019-05-11T09:24:40.570Z,777.60
2019-05-11T09:25:40.558Z,777.58
2019-05-11T09:26:40.546Z,777.37
2019-05-11T09:27:43.375Z,777.34
2019-05-11T09:28:40.541Z,777.34
2019-05-11T09:29:40.502Z,777.54
2019-05-11T09:30:40.494Z,777.76
2019-05-11T09:31:40.481Z,777.84
2019-05-11T09:32:40.491Z,777.98
2019-05-11T09:33:40.467Z,777.99
2019-05-11T09:34:40.444Z,778.01
2019-05-11T09:35:50.100Z,777.87
2019-05-11T09:36:40.437Z,777.84
2019-05-11T09:37:40.433Z,777.66
2019-05-11T09:38:40.408Z,777.54
2019-05-11T09:39:40.402Z,777.44
2019-05-11T09:40:40.377Z,777.44
2019-05-11T09:41:40.369Z,777.67
2019-05-11T09:42:40.383Z,777.78
2019-05-11T09:43:40.349Z,777.85
2019-05-11T09:44:40.336Z,777.95
2019-05-11T09:45:48.237Z,777.96
2019-05-11T09:46:40.332Z,778.13
2019-05-11T09:47:40.332Z,778.26
2019-05-11T09:48:40.289Z,778.19
2019-05-11T09:49:47.593Z,778.07
2019-05-11T09:50:40.267Z,777.97
2019-05-11T09:51:40.256Z,778.06
2019-05-11T09:52:40.267Z,778.36
2019-05-11T09:53:40.256Z,778.64
2019-05-11T09:54:40.232Z,778.63
2019-05-11T09:55:40.218Z,778.59
2019-05-11T09:56:40.209Z,778.53
2019-05-11T09:57:40.197Z,778.49
2019-05-11T09:58:40.208Z,778.55
2019-05-11T09:59:40.164Z,778.50
2019-05-11T10:00:40.157Z,778.54
2019-05-11T10:01:40.154Z,778.38
2019-05-11T10:02:40.137Z,778.27
2019-05-11T10:03:40.140Z,778.07
2019-05-11T10:04:40.111Z,777.93
2019-05-11T10:05:40.097Z,777.66
2019-05-11T10:06:40.102Z,777.74
2019-05-11T10:07:40.102Z,777.85
2019-05-11T10:08:40.089Z,777.77
2019-05-11T10:09:40.058Z,777.63
2019-05-11T10:10:40.052Z,777.63
2019-05-11T10:11:40.106Z,777.79
2019-05-11T10:12:40.047Z,778.01
2019-05-11T10:13:40.038Z,778.18
2019-05-11T10:14:40.009Z,778.38
2019-05-11T10:15:39.989Z,778.31
2019-05-11T10:16:39.997Z,778.28
2019-05-11T10:17:39.986Z,778.27
2019-05-11T10:18:39.971Z,778.39
2019-05-11T10:19:39.950Z,778.29
2019-05-11T10:20:39.930Z,778.29
2019-05-11T10:21:39.915Z,778.13
2019-05-11T10:22:39.910Z,778.01
2019-05-11T10:23:42.625Z,778.01
2019-05-11T10:24:39.913Z,777.95
2019-05-11T10:25:39.874Z,778.42
2019-05-11T10:26:39.877Z,778.55
2019-05-11T10:27:39.859Z,778.62
2019-05-11T10:28:39.871Z,778.78
2019-05-11T10:29:39.851Z,778.69
2019-05-11T10:30:39.829Z,778.55
2019-05-11T10:31:39.811Z,778.72
2019-05-11T10:32:39.799Z,778.85
2019-05-11T10:33:39.806Z,779.00
2019-05-11T10:34:39.785Z,779.00
2019-05-11T10:35:39.773Z,779.12
2019-05-11T10:36:39.749Z,779.19
2019-05-11T10:37:39.762Z,779.04
2019-05-11T10:38:39.757Z,778.85
2019-05-11T10:39:39.727Z,778.81
2019-05-11T10:40:39.708Z,778.93
2019-05-11T10:41:39.701Z,778.86
2019-05-11T10:42:39.693Z,778.68
2019-05-11T10:43:39.700Z,778.51
2019-05-11T10:44:39.732Z,778.57
2019-05-11T10:45:39.653Z,778.55
2019-05-11T10:46:39.652Z,778.58
2019-05-11T10:47:39.653Z,778.67
2019-05-11T10:48:39.629Z,778.98
2019-05-11T10:49:39.631Z,778.94
2019-05-11T10:50:39.603Z,778.86
2019-05-11T10:51:39.590Z,778.86
2019-05-11T10:52:39.583Z,778.83
2019-05-11T10:53:39.561Z,778.87
2019-05-11T10:54:40.127Z,778.99
2019-05-11T10:55:39.544Z,779.03
2019-05-11T10:56:39.545Z,779.00
2019-05-11T10:57:39.535Z,778.91
2019-05-11T10:58:39.520Z,778.89
2019-05-11T10:59:39.523Z,778.93
2019-05-11T11:00:39.481Z,778.85
2019-05-11T11:01:39.481Z,779.14
2019-05-11T11:02:39.477Z,778.98
2019-05-11T11:03:39.454Z,778.82
2019-05-11T11:04:39.459Z,778.47
2019-05-11T11:05:39.446Z,778.39
2019-05-11T11:06:39.412Z,778.21
2019-05-11T11:07:39.402Z,778.25
2019-05-11T11:09:49.173Z,778.38
2019-05-11T11:10:49.578Z,778.44
2019-05-11T11:11:49.558Z,778.46
2019-05-11T11:12:49.548Z,778.16
2019-05-11T11:13:49.529Z,777.88
2019-05-11T11:14:49.537Z,777.73
2019-05-11T11:15:49.520Z,777.84
2019-05-11T11:16:49.502Z,777.79
2019-05-11T11:17:49.509Z,777.61
2019-05-11T11:18:49.490Z,777.76
2019-05-11T11:19:49.496Z,777.99
2019-05-11T11:20:49.465Z,778.06
2019-05-11T11:21:49.454Z,777.92
2019-05-11T11:22:49.451Z,777.88
2019-05-11T11:23:49.435Z,777.77
2019-05-11T11:24:49.446Z,777.82
2019-05-11T11:25:49.405Z,777.88
2019-05-11T11:26:49.391Z,778.27
2019-05-11T11:27:49.383Z,778.94
2019-05-11T11:28:49.397Z,778.88
2019-05-11T11:29:49.393Z,778.94
2019-05-11T11:30:49.355Z,779.07
2019-05-11T11:31:49.338Z,779.29
2019-05-11T11:32:49.333Z,779.32
2019-05-11T11:33:49.315Z,779.09
2019-05-11T11:34:49.319Z,779.14
2019-05-11T11:35:49.311Z,779.18
2019-05-11T11:36:49.275Z,779.24
2019-05-11T11:37:49.267Z,778.99
2019-05-11T11:38:49.252Z,779.10
2019-05-11T11:39:49.252Z,779.17
2019-05-11T11:40:49.256Z,778.97
2019-05-11T11:41:49.227Z,778.91
2019-05-11T11:42:49.222Z,778.69
2019-05-11T11:43:49.205Z,778.64
2019-05-11T11:44:49.195Z,778.88
2019-05-11T11:45:49.203Z,779.04
2019-05-11T11:46:54.967Z,778.97
2019-05-11T11:47:49.573Z,779.21
2019-05-11T11:48:49.261Z,779.04
2019-05-11T11:49:49.159Z,779.14
2019-05-11T11:50:49.146Z,779.18
2019-05-11T11:51:49.112Z,778.86
2019-05-11T11:52:49.112Z,778.79
2019-05-11T11:53:49.091Z,778.78
2019-05-11T11:54:49.085Z,778.72
2019-05-11T11:55:49.082Z,778.62
2019-05-11T11:56:49.057Z,778.78
2019-05-11T11:57:50.386Z,778.79
2019-05-11T11:58:49.107Z,778.69
2019-05-11T11:59:49.053Z,778.22
2019-05-11T12:00:49.036Z,778.48
2019-05-11T12:01:49.008Z,778.23
2019-05-11T12:02:49.001Z,777.95
2019-05-11T12:03:49.153Z,777.93
2019-05-11T12:04:48.962Z,777.98
2019-05-11T12:05:48.978Z,778.17
2019-05-11T12:06:49.217Z,778.03
2019-05-11T12:07:49.276Z,778.28
2019-05-11T12:08:49.653Z,778.65
2019-05-11T12:09:48.908Z,778.63
2019-05-11T12:10:48.928Z,778.71
2019-05-11T12:11:48.899Z,778.62
2019-05-11T12:12:48.893Z,778.26
2019-05-11T12:13:48.879Z,777.95
2019-05-11T12:14:48.860Z,777.75
2019-05-11T12:15:48.880Z,777.64
2019-05-11T12:17:03.701Z,777.86
2019-05-11T12:17:48.835Z,777.58
2019-05-11T12:18:48.884Z,777.81
2019-05-11T12:19:48.821Z,777.50
2019-05-11T12:20:48.813Z,777.25
2019-05-11T12:21:48.821Z,777.40
2019-05-11T12:22:48.773Z,777.20
2019-05-11T12:23:48.897Z,777.20
2019-05-11T12:24:48.772Z,777.59
2019-05-11T12:25:48.895Z,777.69
2019-05-11T12:26:48.744Z,778.12
2019-05-11T12:27:49.217Z,778.12
2019-05-11T12:28:49.139Z,778.38
2019-05-11T12:29:48.701Z,778.22
2019-05-11T12:30:48.680Z,778.34
2019-05-11T12:31:48.711Z,778.36
2019-05-11T12:32:48.962Z,777.95
2019-05-11T12:33:48.671Z,777.80
2019-05-11T12:34:48.639Z,778.04
2019-05-11T12:35:48.619Z,778.37